createdAt,value
2022-08-23T00:13:06.066Z,1.88
2022-08-23T00:38:33.109Z,1.83
2022-08-23T00:45:20.953Z,2.10
2022-08-23T00:50:26.437Z,2.00
2022-08-23T00:55:33.820Z,1.83
2022-08-23T01:15:16.817Z,1.80
2022-08-23T01:20:26.930Z,1.80
2022-08-23T01:25:45.735Z,1.70
2022-08-23T01:37:48.747Z,1.63
2022-08-23T01:42:52.127Z,1.65
2022-08-23T01:47:55.929Z,1.67
2022-08-23T01:53:01.937Z,1.83
2022-08-23T01:58:07.357Z,2.10
2022-08-23T02:03:16.528Z,1.90
2022-08-23T02:08:38.317Z,1.95
2022-08-23T02:13:45.621Z,2.20
2022-08-23T02:18:49.152Z,1.77
2022-08-23T02:23:52.577Z,2.10
2022-08-23T02:28:56.518Z,1.77
2022-08-23T02:39:40.076Z,2.15
2022-08-23T02:44:57.073Z,2.08
2022-08-23T02:55:32.663Z,2.40
2022-08-23T03:08:31.997Z,2.63
2022-08-23T03:33:34.435Z,2.85
2022-08-23T03:38:43.445Z,2.33
2022-08-23T03:43:46.919Z,3.03
2022-08-23T03:48:59.188Z,2.33
2022-08-23T03:54:02.947Z,2.90
2022-08-23T03:59:09.928Z,2.40
2022-08-23T04:10:32.186Z,2.60
2022-08-23T04:15:36.062Z,2.47
2022-08-23T04:20:39.836Z,3.30
2022-08-23T04:25:46.179Z,3.33
2022-08-23T04:30:53.020Z,3.22
2022-08-23T04:35:56.376Z,3.30
2022-08-23T04:41:18.977Z,3.47
2022-08-23T04:46:22.377Z,3.13
2022-08-23T04:51:25.556Z,3.63
2022-08-23T04:56:29.217Z,4.15
2022-08-23T05:01:32.865Z,4.70
2022-08-23T05:06:36.617Z,3.88
2022-08-23T05:11:40.237Z,3.47
2022-08-23T05:16:43.606Z,3.53
2022-08-23T05:21:47.096Z,3.92
2022-08-23T05:26:50.497Z,3.88
2022-08-23T05:31:53.646Z,3.88
2022-08-23T05:36:57.164Z,3.97
2022-08-23T05:42:00.607Z,4.45
2022-08-23T05:47:10.816Z,3.80
2022-08-23T05:52:15.644Z,4.28
2022-08-23T05:57:19.102Z,4.32
2022-08-23T06:02:22.270Z,4.63
2022-08-23T06:07:25.426Z,4.55
2022-08-23T06:12:28.863Z,4.43
2022-08-23T06:17:32.354Z,5.85
2022-08-23T06:22:35.578Z,5.10
2022-08-23T06:27:38.837Z,5.30
2022-08-23T06:32:42.293Z,6.18
2022-08-23T06:37:47.473Z,6.15
2022-08-23T06:42:50.687Z,6.45
2022-08-23T06:47:54.050Z,6.10
2022-08-23T06:52:57.369Z,6.03
2022-08-23T06:58:00.448Z,6.68
2022-08-23T07:03:03.860Z,6.72
2022-08-23T07:08:07.386Z,7.43
2022-08-23T07:13:10.654Z,8.07
2022-08-23T07:18:13.858Z,7.60
2022-08-23T07:23:18.226Z,8.57
2022-08-23T07:28:21.975Z,7.75
2022-08-23T07:33:25.224Z,8.32
2022-08-23T07:38:30.797Z,8.38
2022-08-23T07:43:34.699Z,9.23
2022-08-23T07:48:53.355Z,9.48
2022-08-23T07:53:58.526Z,10.90
2022-08-23T07:59:02.209Z,11.35
2022-08-23T08:04:07.057Z,12.25
2022-08-23T08:09:11.602Z,12.88
2022-08-23T08:14:15.821Z,13.63
2022-08-23T08:19:20.017Z,15.82
2022-08-23T08:24:23.321Z,16.42
2022-08-23T08:29:26.747Z,20.20
2022-08-23T08:34:30.045Z,20.33
2022-08-23T08:39:34.686Z,20.67
2022-08-23T08:44:50.222Z,19.85
2022-08-23T08:49:56.406Z,17.05
2022-08-23T08:55:23.082Z,16.73
2022-08-23T09:00:31.259Z,17.73
2022-08-23T09:05:40.406Z,14.70
2022-08-23T09:11:01.835Z,15.07
2022-08-23T09:16:17.068Z,15.35
2022-08-23T09:21:21.076Z,15.75
2022-08-23T09:26:27.207Z,16.98
2022-08-23T09:31:45.511Z,14.48
2022-08-23T09:36:50.630Z,13.77
2022-08-23T09:41:56.016Z,13.52
2022-08-23T09:47:13.033Z,13.30
2022-08-23T09:52:34.116Z,13.07
2022-08-23T09:57:37.905Z,13.02
2022-08-23T10:02:41.245Z,12.80
2022-08-23T10:07:53.487Z,12.50
2022-08-23T10:12:59.894Z,11.32
2022-08-23T10:18:11.667Z,12.80
2022-08-23T10:23:23.437Z,12.77
2022-08-23T10:29:04.408Z,12.98
2022-08-23T10:34:21.637Z,12.35
2022-08-23T10:39:30.645Z,11.85
2022-08-23T10:45:00.984Z,10.38
2022-08-23T10:50:14.952Z,9.95
2022-08-23T10:56:06.273Z,10.07
2022-08-23T11:01:13.820Z,9.20
2022-08-23T11:06:36.044Z,8.82
2022-08-23T11:12:06.098Z,8.70
2022-08-23T11:17:25.317Z,9.32
2022-08-23T11:22:36.500Z,8.55
2022-08-23T11:27:42.226Z,8.00
2022-08-23T11:32:46.735Z,8.05
2022-08-23T11:37:57.741Z,8.00
2022-08-23T11:43:48.675Z,7.40
2022-08-23T11:49:01.116Z,8.90
2022-08-23T11:54:34.640Z,8.00
2022-08-23T11:59:55.547Z,8.82
2022-08-23T12:05:09.465Z,9.13
2022-08-23T12:10:22.425Z,8.20
2022-08-23T12:16:04.049Z,8.68
2022-08-23T12:21:09.714Z,7.95
2022-08-23T12:26:38.495Z,7.85
2022-08-23T12:32:12.827Z,7.68
2022-08-23T12:37:31.050Z,7.43
2022-08-23T12:42:39.542Z,8.05
2022-08-23T12:47:44.690Z,7.47
2022-08-23T12:52:58.747Z,7.20
2022-08-23T12:58:02.023Z,8.02
2022-08-23T13:03:19.696Z,8.73
2022-08-23T13:08:34.740Z,9.07
2022-08-23T13:13:43.452Z,8.60
2022-08-23T13:18:47.173Z,8.88
2022-08-23T13:24:01.853Z,8.73
2022-08-23T13:29:10.061Z,9.13
2022-08-23T13:34:39.905Z,8.05
2022-08-23T13:39:54.929Z,8.80
2022-08-23T13:44:58.035Z,8.20
2022-08-23T13:50:03.370Z,8.57
2022-08-23T13:55:06.825Z,8.43
2022-08-23T14:00:12.130Z,7.78
2022-08-23T14:05:22.012Z,7.55
2022-08-23T14:10:25.486Z,7.43
2022-08-23T14:20:53.163Z,7.70
2022-08-23T14:25:57.306Z,8.38
2022-08-23T14:31:00.613Z,8.38
2022-08-23T14:36:05.236Z,9.63
2022-08-23T14:41:11.065Z,9.40
2022-08-23T14:46:16.561Z,9.02
2022-08-23T14:51:33.856Z,9.40
2022-08-23T14:56:37.476Z,8.63
2022-08-23T15:01:49.508Z,9.80
2022-08-23T15:07:16.649Z,9.57
2022-08-23T15:17:52.863Z,9.48
2022-08-23T15:22:56.385Z,10.05
2022-08-23T15:28:02.469Z,9.68
2022-08-23T15:33:06.046Z,9.68
2022-08-23T15:38:16.375Z,9.45
2022-08-23T15:43:22.351Z,10.02
2022-08-23T15:48:33.106Z,11.13
2022-08-23T15:53:40.017Z,12.02
2022-08-23T15:58:43.179Z,11.30
2022-08-23T16:03:46.506Z,8.30
2022-08-23T16:08:53.077Z,6.03
2022-08-23T16:13:56.387Z,5.60
2022-08-23T16:19:01.015Z,5.60
2022-08-23T16:24:04.776Z,5.50
2022-08-23T16:29:10.983Z,4.93
2022-08-23T16:34:19.195Z,4.38
2022-08-23T16:39:23.144Z,4.18
2022-08-23T16:44:40.736Z,4.18
2022-08-23T16:49:46.596Z,4.05
2022-08-23T16:54:51.604Z,3.83
2022-08-23T16:59:56.124Z,4.50
2022-08-23T17:05:00.453Z,3.90
2022-08-23T17:10:04.476Z,3.97
2022-08-23T17:15:10.739Z,4.38
2022-08-23T17:20:15.994Z,4.88
2022-08-23T17:25:20.068Z,5.38
2022-08-23T17:45:51.942Z,5.28
2022-08-23T17:50:56.119Z,5.78
2022-08-23T17:55:59.618Z,5.53
2022-08-23T18:01:03.023Z,5.18
2022-08-23T18:06:16.664Z,6.50
2022-08-23T18:11:20.711Z,5.85
2022-08-23T18:16:27.903Z,6.00
2022-08-23T18:21:34.091Z,8.38
2022-08-23T18:26:57.269Z,7.43
2022-08-23T18:32:01.510Z,7.53
2022-08-23T18:37:07.031Z,7.82
2022-08-23T18:42:11.548Z,7.75
2022-08-23T18:47:15.606Z,7.25
2022-08-23T18:52:19.640Z,6.25
2022-08-23T18:57:23.460Z,7.18
2022-08-23T19:02:27.624Z,7.95
2022-08-23T19:07:31.340Z,8.07
2022-08-23T19:12:35.591Z,7.75
2022-08-23T19:17:39.761Z,8.18
2022-08-23T19:22:44.571Z,8.52
2022-08-23T19:27:48.530Z,7.35
2022-08-23T19:39:09.869Z,7.38
2022-08-23T19:44:18.550Z,6.70
2022-08-23T19:49:37.595Z,6.43
2022-08-23T19:54:43.370Z,7.13
2022-08-23T20:00:01.922Z,6.95
2022-08-23T20:05:09.488Z,7.78
2022-08-23T20:10:15.501Z,7.72
2022-08-23T20:15:20.291Z,9.38
2022-08-23T20:20:25.448Z,8.30
2022-08-23T20:25:31.010Z,8.77
2022-08-23T20:30:38.509Z,8.52
2022-08-23T20:35:42.033Z,9.57
2022-08-23T20:40:45.451Z,10.13
2022-08-23T20:45:51.076Z,10.55
2022-08-23T20:50:54.114Z,10.30
2022-08-23T20:55:58.261Z,10.38
2022-08-23T21:01:01.705Z,10.57
2022-08-23T21:06:10.220Z,10.57
2022-08-23T21:11:14.051Z,11.23
2022-08-23T21:16:18.600Z,10.57
2022-08-23T21:21:22.001Z,10.43
2022-08-23T21:26:25.743Z,11.70
2022-08-23T21:31:29.518Z,10.65
2022-08-23T21:36:33.020Z,9.75
2022-08-23T21:41:39.772Z,10.90
2022-08-23T21:46:43.724Z,10.20
2022-08-23T21:51:49.113Z,10.20
2022-08-23T21:56:52.819Z,10.85
2022-08-23T22:01:56.366Z,9.90
2022-08-23T22:07:01.982Z,12.02
2022-08-23T22:12:07.012Z,13.60
2022-08-23T22:17:11.031Z,11.35
2022-08-23T22:22:15.642Z,11.38
2022-08-23T22:27:19.929Z,11.43
2022-08-23T22:32:26.674Z,11.82
2022-08-23T22:38:03.555Z,11.48
2022-08-23T22:43:18.864Z,12.73
2022-08-23T22:48:33.902Z,11.32
2022-08-23T22:53:45.089Z,12.73
2022-08-23T22:58:55.322Z,12.20
2022-08-23T23:04:04.733Z,12.57
2022-08-23T23:09:12.583Z,12.50
2022-08-23T23:14:17.842Z,12.98
2022-08-23T23:19:39.943Z,14.20
2022-08-23T23:24:43.441Z,13.23
2022-08-23T23:29:47.401Z,13.27
2022-08-23T23:34:53.732Z,14.10
2022-08-23T23:40:03.364Z,14.15
2022-08-23T23:52:07.821Z,13.57
2022-08-23T23:57:20.131Z,13.52
